Minot AFB, North Dakota
Current Conditions -  °F | °C
As of 10:58 AM on Saturday 25 Oct 2014 (Local Time) from KMIB Reporting Station
Clear Clear  
Wind Chill: 46°   Ceiling: Unl
Heat Index: 49°   Visibility: 10mi
Dew Point: 32°   Wind: 7mph
Humidity: 53%   Direction: 280°W
Pressure: 30.12"   Gusts: NA
Location:  48.42°N, 101.33°W
Report Text: KMIB 251558Z AUTO 28006KT 10SM CLR 10/00 A3012 RMK AO2 SLP215 T00950002 $
Loading
Personal Weather Stations






























Interactive Weather Map
Tropical Storm Tracking
New forecast layout! Learn more

10-Day Weather Forecast

Advertisements
Track Severe Weather on mobile